createdAt,value
2018-05-09T00:02:27.457Z,5.00
2018-05-09T00:05:29.934Z,5.50
2018-05-09T00:08:32.461Z,5.27
2018-05-09T00:11:35.017Z,5.20
2018-05-09T00:14:37.572Z,5.03
2018-05-09T00:17:40.028Z,5.40
2018-05-09T00:20:42.512Z,5.20
2018-05-09T00:23:44.972Z,5.20
2018-05-09T00:26:47.473Z,5.17
2018-05-09T00:29:49.900Z,5.23
2018-05-09T00:32:52.434Z,5.33
2018-05-09T00:35:54.916Z,5.47
2018-05-09T00:38:57.464Z,5.30
2018-05-09T00:41:59.981Z,5.30
2018-05-09T00:45:02.481Z,5.00
2018-05-09T00:48:05.046Z,5.57
2018-05-09T00:51:07.524Z,5.67
2018-05-09T00:54:21.947Z,5.70
2018-05-09T00:57:24.476Z,5.80
2018-05-09T01:00:26.954Z,5.30
2018-05-09T01:03:29.388Z,5.50
2018-05-09T01:06:31.853Z,5.57
2018-05-09T01:09:34.335Z,5.30
2018-05-09T01:12:36.835Z,5.10
2018-05-09T01:15:39.349Z,5.30
2018-05-09T01:18:41.812Z,5.37
2018-05-09T01:21:44.269Z,5.37
2018-05-09T01:24:46.719Z,4.70
2018-05-09T01:27:49.149Z,5.40
2018-05-09T01:30:51.625Z,4.90
2018-05-09T01:33:54.134Z,5.80
2018-05-09T01:36:56.559Z,5.27
2018-05-09T01:39:59.055Z,5.90
2018-05-09T01:43:01.523Z,5.50
2018-05-09T01:46:03.995Z,6.00
2018-05-09T01:49:06.439Z,5.10
2018-05-09T01:52:08.913Z,5.70
2018-05-09T01:55:11.458Z,5.20
2018-05-09T01:58:14.020Z,5.30
2018-05-09T02:01:16.504Z,5.53
2018-05-09T02:04:19.046Z,5.13
2018-05-09T02:07:21.508Z,5.10
2018-05-09T02:10:23.947Z,5.70
2018-05-09T02:13:26.424Z,5.23
2018-05-09T02:16:28.913Z,5.57
2018-05-09T02:19:31.348Z,5.20
2018-05-09T02:22:33.852Z,5.80
2018-05-09T02:25:36.349Z,5.70
2018-05-09T02:28:38.863Z,5.50
2018-05-09T02:31:41.335Z,5.90
2018-05-09T02:34:43.774Z,5.90
2018-05-09T02:37:46.234Z,5.50
2018-05-09T02:40:48.654Z,6.00
2018-05-09T02:43:51.136Z,5.20
2018-05-09T02:46:53.576Z,5.90
2018-05-09T02:49:56.088Z,5.17
2018-05-09T02:52:58.556Z,5.50
2018-05-09T02:56:00.998Z,5.77
2018-05-09T02:59:03.540Z,5.70
2018-05-09T03:02:06.095Z,5.53
2018-05-09T03:05:08.523Z,5.33
2018-05-09T03:08:10.992Z,4.93
2018-05-09T03:11:13.466Z,5.20
2018-05-09T03:14:15.945Z,5.87
2018-05-09T03:17:18.350Z,5.70
2018-05-09T03:20:20.830Z,5.30
2018-05-09T03:23:23.748Z,5.90
2018-05-09T03:26:26.295Z,5.73
2018-05-09T03:29:28.745Z,5.47
2018-05-09T03:32:31.213Z,5.33
2018-05-09T03:35:33.674Z,5.30
2018-05-09T03:38:36.233Z,5.53
2018-05-09T03:41:38.750Z,5.30
2018-05-09T03:44:41.248Z,5.10
2018-05-09T03:47:43.694Z,5.80
2018-05-09T03:50:46.161Z,5.07
2018-05-09T03:53:48.619Z,5.07
2018-05-09T03:56:51.115Z,5.27
2018-05-09T03:59:53.581Z,5.43
2018-05-09T04:03:08.000Z,5.50
2018-05-09T04:06:22.274Z,5.50
2018-05-09T04:13:04.664Z,5.30
2018-05-09T04:16:07.035Z,5.13
2018-05-09T04:19:09.549Z,5.00
2018-05-09T04:22:11.995Z,5.23
2018-05-09T04:25:14.550Z,4.90
2018-05-09T04:28:17.216Z,4.80
2018-05-09T04:31:19.632Z,4.70
2018-05-09T04:34:22.154Z,5.03
2018-05-09T04:37:24.597Z,4.67
2018-05-09T04:40:27.096Z,4.73
2018-05-09T04:43:29.722Z,4.67
2018-05-09T04:46:32.280Z,5.00
2018-05-09T04:49:34.724Z,4.80
2018-05-09T04:52:37.205Z,4.60
2018-05-09T04:55:39.805Z,5.13
2018-05-09T04:58:42.218Z,4.73
2018-05-09T05:01:44.653Z,4.40
2018-05-09T05:04:47.163Z,5.30
2018-05-09T05:07:49.598Z,4.50
2018-05-09T05:10:52.058Z,4.80
2018-05-09T05:13:54.555Z,4.97
2018-05-09T05:16:56.994Z,4.80
2018-05-09T05:19:59.526Z,4.90
2018-05-09T05:23:02.216Z,4.80
2018-05-09T05:26:04.643Z,4.87
2018-05-09T05:29:07.104Z,4.57
2018-05-09T05:32:09.711Z,4.60
2018-05-09T05:35:12.256Z,4.70
2018-05-09T05:38:14.824Z,4.40
2018-05-09T05:41:17.254Z,4.40
2018-05-09T05:44:19.753Z,4.47
2018-05-09T05:47:22.199Z,4.07
2018-05-09T05:50:24.699Z,5.10
2018-05-09T05:53:27.133Z,5.40
2018-05-09T05:56:29.691Z,5.33
2018-05-09T05:59:32.147Z,5.03
2018-05-09T06:02:34.716Z,4.77
2018-05-09T06:05:37.272Z,5.37
2018-05-09T06:08:39.769Z,4.40
2018-05-09T06:11:42.222Z,4.50
2018-05-09T06:14:44.666Z,4.50
2018-05-09T06:17:47.133Z,4.90
2018-05-09T06:20:49.635Z,5.40
2018-05-09T06:23:52.192Z,4.57
2018-05-09T06:26:54.662Z,4.80
2018-05-09T06:29:57.166Z,4.83
2018-05-09T06:32:59.622Z,6.40
2018-05-09T06:36:02.092Z,6.70
2018-05-09T06:39:05.455Z,6.87
2018-05-09T06:42:07.956Z,7.37
2018-05-09T06:45:10.432Z,6.23
2018-05-09T06:48:12.886Z,7.40
2018-05-09T06:51:15.367Z,8.40
2018-05-09T06:54:17.878Z,5.43
2018-05-09T06:57:20.342Z,6.60
2018-05-09T07:00:22.817Z,6.13
2018-05-09T07:03:25.287Z,5.47
2018-05-09T07:06:27.942Z,5.57
2018-05-09T07:09:30.276Z,5.80
2018-05-09T07:12:32.864Z,5.10
2018-05-09T07:15:35.302Z,5.50
2018-05-09T07:18:37.869Z,6.30
2018-05-09T07:21:40.422Z,5.97
2018-05-09T07:24:42.991Z,5.40
2018-05-09T07:27:45.463Z,5.60
2018-05-09T07:30:47.918Z,5.17
2018-05-09T07:33:50.468Z,5.60
2018-05-09T07:36:52.931Z,6.00
2018-05-09T07:39:55.402Z,5.90
2018-05-09T07:42:57.955Z,5.53
2018-05-09T07:46:00.357Z,5.53
2018-05-09T07:49:02.986Z,5.67
2018-05-09T07:52:05.446Z,5.77
2018-05-09T07:55:07.956Z,5.20
2018-05-09T07:58:10.387Z,5.00
2018-05-09T08:01:12.877Z,5.70
2018-05-09T08:04:15.331Z,5.13
2018-05-09T08:07:17.857Z,5.57
2018-05-09T08:10:20.412Z,5.70
2018-05-09T08:13:22.972Z,5.03
2018-05-09T08:16:25.489Z,5.00
2018-05-09T08:19:27.954Z,5.37
2018-05-09T08:22:30.408Z,6.00
2018-05-09T08:25:32.891Z,5.23
2018-05-09T08:28:35.494Z,5.20
2018-05-09T08:31:37.933Z,5.60
2018-05-09T08:34:40.437Z,5.90
2018-05-09T08:37:42.959Z,6.13
2018-05-09T08:40:45.387Z,5.67
2018-05-09T08:43:47.920Z,5.60
2018-05-09T08:46:50.369Z,5.83
2018-05-09T08:49:52.827Z,5.63
2018-05-09T08:52:55.242Z,5.67
2018-05-09T08:55:57.727Z,6.13
2018-05-09T08:59:00.187Z,5.33
2018-05-09T09:02:02.643Z,5.67
2018-05-09T09:05:05.082Z,6.67
2018-05-09T09:08:07.637Z,5.67
2018-05-09T09:11:10.138Z,5.80
2018-05-09T09:14:12.693Z,5.40
2018-05-09T09:17:15.162Z,5.70
2018-05-09T09:20:17.598Z,6.43
2018-05-09T09:23:20.064Z,5.97
2018-05-09T09:26:22.644Z,5.70
2018-05-09T09:29:25.203Z,5.83
2018-05-09T09:32:27.660Z,5.77
2018-05-09T09:35:30.195Z,6.40
2018-05-09T09:38:32.767Z,5.80
2018-05-09T09:41:35.353Z,5.73
2018-05-09T09:44:37.704Z,6.80
2018-05-09T09:47:40.265Z,5.70
2018-05-09T09:50:42.768Z,6.00
2018-05-09T09:53:45.292Z,5.80
2018-05-09T09:56:47.743Z,5.90
2018-05-09T09:59:50.220Z,5.60
2018-05-09T10:02:52.708Z,4.90
2018-05-09T10:05:55.169Z,6.23
2018-05-09T10:08:57.698Z,5.33
2018-05-09T10:12:00.163Z,5.53
2018-05-09T10:15:02.616Z,5.40
2018-05-09T10:18:05.180Z,5.97
2018-05-09T10:21:07.606Z,5.67
2018-05-09T10:24:10.074Z,5.00
2018-05-09T10:27:12.661Z,5.77
2018-05-09T10:30:15.162Z,5.50
2018-05-09T10:33:17.689Z,5.70
2018-05-09T10:36:20.123Z,5.77
2018-05-09T10:39:22.714Z,4.73
2018-05-09T10:42:25.276Z,5.70
2018-05-09T10:45:27.753Z,5.17
2018-05-09T10:48:30.184Z,5.60
2018-05-09T10:51:32.715Z,5.30
2018-05-09T10:54:35.166Z,5.27
2018-05-09T10:57:37.715Z,4.80
2018-05-09T11:00:40.238Z,5.87
2018-05-09T11:03:43.706Z,5.40
2018-05-09T11:06:46.110Z,5.40
2018-05-09T11:09:48.561Z,5.50
2018-05-09T11:12:51.054Z,5.70
2018-05-09T11:15:53.518Z,5.33
2018-05-09T11:18:55.980Z,5.50
2018-05-09T11:21:58.469Z,5.80
2018-05-09T11:25:00.995Z,5.47
2018-05-09T11:28:03.465Z,5.80
2018-05-09T11:31:05.943Z,5.23
2018-05-09T11:34:08.437Z,5.80
2018-05-09T11:37:10.894Z,5.70
2018-05-09T11:40:13.438Z,5.43
2018-05-09T11:43:15.888Z,5.40
2018-05-09T11:46:18.346Z,5.13
2018-05-09T11:49:20.920Z,4.90
2018-05-09T11:52:23.421Z,4.90
2018-05-09T11:55:25.948Z,5.30
2018-05-09T11:58:28.431Z,4.83
2018-05-09T12:01:30.892Z,5.07
2018-05-09T12:04:33.365Z,5.00
2018-05-09T12:07:35.869Z,4.70
2018-05-09T12:10:38.365Z,5.47
2018-05-09T12:13:40.934Z,5.10
2018-05-09T12:16:43.415Z,4.97
2018-05-09T12:19:45.899Z,5.00
2018-05-09T12:22:48.337Z,4.73
2018-05-09T12:25:50.838Z,5.10
2018-05-09T12:28:53.359Z,5.30
2018-05-09T12:31:55.840Z,5.10
2018-05-09T12:34:58.357Z,5.27
2018-05-09T12:38:01.008Z,5.33
2018-05-09T12:41:03.461Z,5.40
2018-05-09T12:44:05.926Z,5.13
2018-05-09T12:47:08.360Z,5.20
2018-05-09T12:50:10.970Z,5.20
2018-05-09T12:53:13.455Z,6.07
2018-05-09T12:56:15.901Z,5.80
2018-05-09T12:59:18.879Z,5.70
2018-05-09T13:02:21.352Z,5.20
2018-05-09T13:05:23.839Z,5.23
2018-05-09T13:08:26.387Z,5.30
2018-05-09T13:11:28.905Z,5.00
2018-05-09T13:14:31.421Z,5.20
2018-05-09T13:17:33.902Z,5.70
2018-05-09T13:20:36.405Z,5.70
2018-05-09T13:23:38.852Z,6.43
2018-05-09T13:26:41.416Z,5.27
2018-05-09T13:29:43.911Z,5.30
2018-05-09T13:32:46.416Z,6.00
2018-05-09T13:35:48.999Z,6.33
2018-05-09T13:38:51.472Z,5.77
2018-05-09T13:41:54.031Z,6.07
2018-05-09T13:44:56.516Z,5.73
2018-05-09T13:47:59.059Z,5.80
2018-05-09T13:51:01.525Z,5.30
2018-05-09T13:54:04.069Z,5.93
2018-05-09T13:57:06.590Z,6.20
2018-05-09T14:00:09.103Z,5.40
2018-05-09T14:03:11.528Z,5.60
2018-05-09T14:06:14.097Z,5.70
2018-05-09T14:09:16.571Z,5.07
2018-05-09T14:12:19.072Z,5.33
2018-05-09T14:15:21.549Z,5.10
2018-05-09T14:18:24.001Z,5.27
2018-05-09T14:21:26.484Z,5.27
2018-05-09T14:24:28.972Z,5.27
2018-05-09T14:27:31.418Z,4.60
2018-05-09T14:30:33.956Z,5.27
2018-05-09T14:33:36.492Z,5.60
2018-05-09T14:36:38.983Z,5.27
2018-05-09T14:39:41.491Z,5.57
2018-05-09T14:42:44.056Z,5.43
2018-05-09T14:45:46.521Z,5.57
2018-05-09T14:48:49.077Z,5.30
2018-05-09T14:51:51.651Z,4.93
2018-05-09T14:54:54.332Z,5.73
2018-05-09T14:57:56.808Z,5.00
2018-05-09T15:00:59.312Z,5.37
2018-05-09T15:04:01.776Z,5.20
2018-05-09T15:07:04.351Z,4.90
2018-05-09T15:10:06.800Z,5.40
2018-05-09T15:13:09.312Z,5.20
2018-05-09T15:16:11.938Z,5.10
2018-05-09T15:19:14.439Z,4.93
2018-05-09T15:22:16.938Z,4.60
2018-05-09T15:25:19.583Z,4.73
2018-05-09T15:28:22.092Z,4.90
2018-05-09T15:31:24.567Z,4.83
2018-05-09T15:34:27.103Z,5.00
2018-05-09T15:37:29.607Z,5.10
2018-05-09T15:40:32.128Z,4.87
2018-05-09T15:43:34.605Z,4.77
2018-05-09T15:46:37.103Z,5.00
2018-05-09T15:49:39.596Z,5.07
2018-05-09T15:52:42.182Z,4.70
2018-05-09T15:55:44.638Z,4.87
2018-05-09T15:58:47.191Z,5.80
2018-05-09T16:01:49.681Z,5.20
2018-05-09T16:04:52.197Z,4.80
2018-05-09T16:07:54.648Z,5.27
2018-05-09T16:10:57.146Z,5.00
2018-05-09T16:13:59.584Z,4.73
2018-05-09T16:17:02.093Z,5.20
2018-05-09T16:20:04.688Z,5.37
2018-05-09T16:23:07.187Z,5.50
2018-05-09T16:26:09.687Z,5.40
2018-05-09T16:29:12.132Z,5.20
2018-05-09T16:32:14.631Z,5.83
2018-05-09T16:35:17.159Z,5.37
2018-05-09T16:38:19.657Z,5.00
2018-05-09T16:41:22.159Z,5.50
2018-05-09T16:44:24.605Z,5.60
2018-05-09T16:47:27.120Z,5.43
2018-05-09T16:50:29.684Z,5.43
2018-05-09T16:53:32.202Z,5.10
2018-05-09T16:56:34.668Z,5.40
2018-05-09T16:59:37.151Z,5.23
2018-05-09T17:02:39.608Z,5.50
2018-05-09T17:05:42.107Z,4.60
2018-05-09T17:08:44.571Z,5.33
2018-05-09T17:11:47.174Z,5.50
2018-05-09T17:14:49.734Z,5.30
2018-05-09T17:17:52.228Z,4.77
2018-05-09T17:20:54.713Z,4.97
2018-05-09T17:23:57.193Z,5.00
2018-05-09T17:26:59.654Z,4.80
2018-05-09T17:30:02.140Z,4.93
2018-05-09T17:33:04.659Z,5.40
2018-05-09T17:36:07.089Z,4.83
2018-05-09T17:39:09.620Z,5.17
2018-05-09T17:42:12.116Z,4.70
2018-05-09T17:45:14.603Z,5.07
2018-05-09T17:48:17.136Z,4.80
2018-05-09T17:51:19.672Z,5.33
2018-05-09T17:54:22.163Z,4.70
2018-05-09T17:57:24.620Z,5.03
2018-05-09T18:00:27.134Z,4.87
2018-05-09T18:03:29.619Z,4.83
2018-05-09T18:06:32.172Z,4.80
2018-05-09T18:09:34.635Z,4.80
2018-05-09T18:12:37.200Z,5.63
2018-05-09T18:15:39.723Z,5.03
2018-05-09T18:18:42.259Z,5.63
2018-05-09T18:21:44.837Z,5.23
2018-05-09T18:24:47.271Z,5.30
2018-05-09T18:27:49.731Z,5.30
2018-05-09T18:30:52.234Z,5.90
2018-05-09T18:33:54.729Z,5.83
2018-05-09T18:36:57.212Z,5.97
2018-05-09T18:39:59.751Z,6.33
2018-05-09T18:43:02.201Z,6.03
2018-05-09T18:46:04.708Z,6.80
2018-05-09T18:49:07.194Z,6.43
2018-05-09T18:52:09.724Z,6.80
2018-05-09T18:55:12.225Z,6.50
2018-05-09T18:58:14.729Z,6.23
2018-05-09T19:01:17.229Z,6.90
2018-05-09T19:04:19.741Z,6.73
2018-05-09T19:07:22.320Z,6.30
2018-05-09T19:10:24.820Z,7.37
2018-05-09T19:13:27.275Z,6.90
2018-05-09T19:16:29.804Z,6.67
2018-05-09T19:19:32.266Z,6.30
2018-05-09T19:22:34.771Z,7.47
2018-05-09T19:25:37.383Z,7.20
2018-05-09T19:28:39.932Z,6.80
2018-05-09T19:31:43.482Z,7.17
2018-05-09T19:34:46.092Z,7.20
2018-05-09T19:37:48.595Z,6.90
2018-05-09T19:40:51.153Z,6.77
2018-05-09T19:43:53.675Z,6.47
2018-05-09T19:46:56.242Z,6.77
2018-05-09T19:49:58.822Z,7.27
2018-05-09T19:53:01.284Z,6.43
2018-05-09T19:56:03.776Z,6.90
2018-05-09T19:59:06.249Z,7.87
2018-05-09T20:02:08.801Z,6.97
2018-05-09T20:05:11.284Z,7.03
2018-05-09T20:08:13.789Z,6.83
2018-05-09T20:11:16.301Z,7.00
2018-05-09T20:14:18.830Z,6.67
2018-05-09T20:17:21.370Z,7.10
2018-05-09T20:20:23.860Z,7.20
2018-05-09T20:23:26.334Z,6.80
2018-05-09T20:26:28.856Z,7.27
2018-05-09T20:29:31.386Z,7.03
2018-05-09T20:32:39.861Z,7.30
2018-05-09T20:35:42.359Z,7.70
2018-05-09T20:38:44.811Z,7.40
2018-05-09T20:41:47.382Z,7.43
2018-05-09T20:44:49.862Z,7.57
2018-05-09T20:47:52.452Z,7.23
2018-05-09T20:50:54.973Z,8.17
2018-05-09T20:53:57.635Z,7.67
2018-05-09T20:57:00.107Z,7.00
2018-05-09T21:00:02.585Z,7.87
2018-05-09T21:03:05.060Z,7.67
2018-05-09T21:06:07.565Z,6.73
2018-05-09T21:09:10.172Z,7.70
2018-05-09T21:12:12.595Z,8.53
2018-05-09T21:15:15.172Z,7.50
2018-05-09T21:18:17.694Z,7.63
2018-05-09T21:21:20.167Z,7.33
2018-05-09T21:24:22.760Z,6.90
2018-05-09T21:27:25.191Z,8.40
2018-05-09T21:30:27.729Z,7.40
2018-05-09T21:33:30.332Z,7.63
2018-05-09T21:36:32.839Z,7.53
2018-05-09T21:39:35.327Z,7.90
2018-05-09T21:42:37.820Z,7.73
2018-05-09T21:45:40.382Z,7.47
2018-05-09T21:48:42.839Z,7.70
2018-05-09T21:51:45.419Z,8.13
2018-05-09T21:54:47.899Z,7.20
2018-05-09T21:57:50.526Z,7.70
2018-05-09T22:00:53.094Z,7.20
2018-05-09T22:03:55.596Z,7.60
2018-05-09T22:06:58.095Z,7.37
2018-05-09T22:10:00.561Z,7.30
2018-05-09T22:13:03.051Z,8.00
2018-05-09T22:16:05.475Z,7.43
2018-05-09T22:19:07.964Z,7.07
2018-05-09T22:22:10.514Z,7.17
2018-05-09T22:25:13.086Z,7.00
2018-05-09T22:28:15.578Z,6.97
2018-05-09T22:31:18.092Z,6.90
2018-05-09T22:34:20.541Z,7.73
2018-05-09T22:37:23.107Z,7.00
2018-05-09T22:40:25.566Z,7.53
2018-05-09T22:43:28.034Z,7.30
2018-05-09T22:46:30.558Z,8.10
2018-05-09T22:49:33.077Z,7.40
2018-05-09T22:52:35.575Z,7.13
2018-05-09T22:55:38.015Z,7.20
2018-05-09T22:58:40.557Z,7.67
2018-05-09T23:01:43.130Z,7.30
2018-05-09T23:04:45.619Z,7.87
2018-05-09T23:07:48.092Z,6.93
2018-05-09T23:10:50.604Z,7.00
2018-05-09T23:13:53.269Z,7.13
2018-05-09T23:16:55.766Z,7.40
2018-05-09T23:19:58.234Z,7.50
2018-05-09T23:23:00.675Z,7.30
2018-05-09T23:26:03.137Z,6.97
2018-05-09T23:29:05.641Z,7.33
2018-05-09T23:32:08.176Z,7.30
2018-05-09T23:35:11.225Z,7.33
2018-05-09T23:38:13.695Z,7.37
2018-05-09T23:41:16.175Z,7.83
2018-05-09T23:44:18.689Z,7.00
2018-05-09T23:47:21.131Z,7.50
2018-05-09T23:50:23.644Z,7.30
2018-05-09T23:53:26.115Z,7.63
2018-05-09T23:56:28.577Z,7.63
2018-05-09T23:59:31.094Z,6.83
